createdAt,value
2022-12-07T00:00:56.009Z,8.26
2022-12-07T00:02:06.037Z,8.28
2022-12-07T00:03:16.065Z,8.3
2022-12-07T00:04:26.093Z,8.28
2022-12-07T00:05:36.122Z,8.27
2022-12-07T00:06:46.148Z,8.22
2022-12-07T00:07:56.175Z,8.2
2022-12-07T00:09:39.168Z,8.18
2022-12-07T00:10:49.196Z,8.22
2022-12-07T00:12:32.188Z,8.26
2022-12-07T00:13:42.216Z,8.27
2022-12-07T00:14:52.243Z,8.28
2022-12-07T00:16:35.234Z,8.22
2022-12-07T00:17:45.261Z,8.18
2022-12-07T00:18:55.289Z,8.14
2022-12-07T00:20:38.283Z,8.08
2022-12-07T00:21:48.310Z,8.09
2022-12-07T00:22:58.336Z,8.1
2022-12-07T00:24:41.328Z,8.07
2022-12-07T00:25:51.356Z,8.05
2022-12-07T00:28:07.314Z,8.04
2022-12-07T00:29:17.341Z,8.05
2022-12-07T00:30:27.369Z,8.08
2022-12-07T00:32:10.361Z,8.14
2022-12-07T00:33:53.355Z,8.18
2022-12-07T00:35:36.349Z,8.21
2022-12-07T00:36:46.377Z,8.25
2022-12-07T00:38:29.371Z,8.32
2022-12-07T00:39:39.398Z,8.33
2022-12-07T00:40:49.425Z,8.35
2022-12-07T00:42:32.418Z,8.38
2022-12-07T00:43:42.446Z,8.39
2022-12-07T00:44:52.473Z,8.39
2022-12-07T00:46:35.466Z,8.41
2022-12-07T00:47:45.493Z,8.39
2022-12-07T00:48:55.521Z,8.41
2022-12-07T00:50:38.513Z,8.39
2022-12-07T00:51:48.541Z,8.39
2022-12-07T00:52:58.570Z,8.39
2022-12-07T00:54:41.564Z,8.41
2022-12-07T00:55:51.592Z,8.41
2022-12-07T00:57:34.586Z,8.45
2022-12-07T00:58:44.612Z,8.42
2022-12-07T00:59:54.640Z,8.37
2022-12-07T01:01:37.635Z,8.24
2022-12-07T01:02:47.663Z,8.16
2022-12-07T01:03:57.691Z,8.09
2022-12-07T01:05:40.684Z,7.99
2022-12-07T01:06:50.713Z,7.98
2022-12-07T01:08:33.707Z,8.01
2022-12-07T01:09:43.734Z,8.02
2022-12-07T01:12:28.562Z,8.01
2022-12-07T01:13:38.591Z,7.99
2022-12-07T01:14:48.618Z,7.98
2022-12-07T01:16:31.612Z,7.95
2022-12-07T01:17:41.641Z,7.93
2022-12-07T01:18:51.669Z,7.93
2022-12-07T01:20:34.663Z,7.93
2022-12-07T01:21:44.691Z,7.9
2022-12-07T01:22:54.717Z,7.88
2022-12-07T01:24:37.709Z,7.84
2022-12-07T01:25:47.736Z,7.81
2022-12-07T01:26:57.764Z,7.77
2022-12-07T01:28:40.757Z,7.76
2022-12-07T01:29:50.784Z,7.75
2022-12-07T01:31:33.778Z,7.75
2022-12-07T01:32:43.804Z,7.75
2022-12-07T01:33:53.834Z,7.72
2022-12-07T01:35:36.827Z,7.71
2022-12-07T01:36:46.853Z,7.69
2022-12-07T01:37:56.879Z,7.7
2022-12-07T01:39:39.874Z,7.69
2022-12-07T01:40:49.901Z,7.69
2022-12-07T01:42:32.896Z,7.68
2022-12-07T01:43:42.924Z,7.66
2022-12-07T01:44:52.952Z,7.63
2022-12-07T01:46:35.946Z,7.6
2022-12-07T01:47:45.974Z,7.59
2022-12-07T01:48:56.000Z,7.57
2022-12-07T01:50:06.028Z,7.55
2022-12-07T01:51:16.055Z,7.55
2022-12-07T01:52:26.082Z,7.54
2022-12-07T01:53:36.109Z,7.54
2022-12-07T01:54:46.137Z,7.57
2022-12-07T01:55:56.165Z,7.6
2022-12-07T01:57:39.159Z,7.64
2022-12-07T01:58:49.187Z,7.64
2022-12-07T02:00:32.182Z,7.6
2022-12-07T02:01:42.210Z,7.61
2022-12-07T02:02:52.237Z,7.61
2022-12-07T02:04:35.229Z,7.6
2022-12-07T02:06:14.125Z,7.6
2022-12-07T02:07:24.152Z,7.59
2022-12-07T02:09:07.147Z,7.62
2022-12-07T02:10:17.173Z,7.64
2022-12-07T02:12:33.133Z,7.62
2022-12-07T02:13:43.161Z,7.6
2022-12-07T02:14:53.189Z,7.57
2022-12-07T02:16:36.181Z,7.51
2022-12-07T02:17:46.210Z,7.5
2022-12-07T02:18:56.238Z,7.47
2022-12-07T02:20:39.230Z,7.44
2022-12-07T02:21:49.258Z,7.44
2022-12-07T02:24:05.216Z,7.43
2022-12-07T02:25:15.244Z,7.45
2022-12-07T02:26:25.272Z,7.47
2022-12-07T02:28:08.265Z,7.48
2022-12-07T02:29:51.259Z,7.51
2022-12-07T02:31:34.251Z,7.54
2022-12-07T02:32:44.280Z,7.58
2022-12-07T02:33:54.307Z,7.62
2022-12-07T02:35:37.302Z,7.65
2022-12-07T02:36:47.330Z,7.68
2022-12-07T02:37:57.358Z,7.71
2022-12-07T02:39:40.351Z,7.77
2022-12-07T02:40:50.378Z,7.81
2022-12-07T02:42:33.372Z,7.85
2022-12-07T02:43:43.400Z,7.86
2022-12-07T02:44:53.427Z,7.87
2022-12-07T02:46:36.421Z,7.84
2022-12-07T02:47:46.447Z,7.79
2022-12-07T02:48:56.475Z,7.74
2022-12-07T02:50:39.469Z,7.62
2022-12-07T02:51:49.498Z,7.59
2022-12-07T02:53:32.492Z,7.51
2022-12-07T02:54:42.520Z,7.48
2022-12-07T02:55:52.548Z,7.47
2022-12-07T02:57:35.542Z,7.44
2022-12-07T02:58:45.568Z,7.42
2022-12-07T02:59:55.596Z,7.41
2022-12-07T03:01:38.591Z,7.42
2022-12-07T03:02:48.619Z,7.43
2022-12-07T03:03:58.647Z,7.46
2022-12-07T03:05:41.641Z,7.46
2022-12-07T03:06:51.669Z,7.45
2022-12-07T03:08:34.663Z,7.45
2022-12-07T03:09:44.690Z,7.48
2022-12-07T03:10:54.718Z,7.51
2022-12-07T03:12:37.712Z,7.53
2022-12-07T03:13:47.740Z,7.51
2022-12-07T03:14:57.768Z,7.51
2022-12-07T03:17:09.632Z,7.49
2022-12-07T03:18:19.661Z,7.47
2022-12-07T03:20:02.655Z,7.42
2022-12-07T03:21:12.681Z,7.41
2022-12-07T03:23:28.641Z,7.45
2022-12-07T03:24:38.669Z,7.44
2022-12-07T03:25:48.696Z,7.46
2022-12-07T03:27:31.690Z,7.41
2022-12-07T03:28:41.717Z,7.38
2022-12-07T03:29:51.743Z,7.36
2022-12-07T03:32:36.571Z,7.3
2022-12-07T03:33:46.598Z,7.28
2022-12-07T03:35:29.592Z,7.22
2022-12-07T03:36:39.621Z,7.2
2022-12-07T03:37:49.648Z,7.2
2022-12-07T03:38:59.675Z,7.19
2022-12-07T03:40:09.703Z,7.2
2022-12-07T03:41:19.731Z,7.22
2022-12-07T03:42:29.759Z,7.24
2022-12-07T03:43:39.786Z,7.25
2022-12-07T03:44:49.813Z,7.26
2022-12-07T03:46:32.807Z,7.31
2022-12-07T03:47:42.834Z,7.3
2022-12-07T03:48:52.862Z,7.28
2022-12-07T03:50:35.855Z,7.21
2022-12-07T03:51:45.882Z,7.17
2022-12-07T03:52:55.910Z,7.14
2022-12-07T03:54:38.905Z,7.07
2022-12-07T03:55:48.933Z,7.03
2022-12-07T03:56:58.961Z,7.01
2022-12-07T03:58:41.954Z,6.94
2022-12-07T03:59:51.981Z,6.9
2022-12-07T04:01:34.975Z,6.82
2022-12-07T04:02:45.003Z,6.77
2022-12-07T04:03:55.031Z,6.73
2022-12-07T04:05:38.026Z,6.68
2022-12-07T04:06:48.054Z,6.66
2022-12-07T04:07:58.082Z,6.65
2022-12-07T04:09:41.076Z,6.6
2022-12-07T04:10:51.104Z,6.58
2022-12-07T04:12:34.096Z,6.6
2022-12-07T04:13:44.124Z,6.61
2022-12-07T04:14:54.152Z,6.61
2022-12-07T04:16:37.145Z,6.62
2022-12-07T04:17:47.172Z,6.62
2022-12-07T04:19:30.163Z,6.63
2022-12-07T04:21:13.157Z,6.66
2022-12-07T04:22:23.185Z,6.66
2022-12-07T04:24:06.177Z,6.68
2022-12-07T04:26:18.040Z,6.76
2022-12-07T04:28:01.034Z,6.84
2022-12-07T04:29:11.062Z,6.85
2022-12-07T04:30:21.090Z,6.84
2022-12-07T04:32:37.048Z,6.83
2022-12-07T04:33:47.076Z,6.8
2022-12-07T04:35:30.070Z,6.78
2022-12-07T04:36:40.098Z,6.79
2022-12-07T04:37:50.125Z,6.78
2022-12-07T04:39:33.118Z,6.83
2022-12-07T04:40:43.145Z,6.84
2022-12-07T04:43:27.974Z,6.87
2022-12-07T04:44:38.001Z,6.87
2022-12-07T04:45:48.029Z,6.88
2022-12-07T04:47:31.024Z,6.91
2022-12-07T04:48:41.052Z,6.92
2022-12-07T04:49:51.080Z,6.94
2022-12-07T04:51:34.074Z,7
2022-12-07T04:52:44.101Z,7.02
2022-12-07T04:53:54.128Z,7.02
2022-12-07T04:55:37.122Z,7.07
2022-12-07T04:56:47.150Z,7.08
2022-12-07T04:57:57.179Z,7.11
2022-12-07T04:59:40.172Z,7.15
2022-12-07T05:00:50.199Z,7.15
2022-12-07T05:02:33.193Z,7.16
2022-12-07T05:03:43.220Z,7.15
2022-12-07T05:04:53.246Z,7.13
2022-12-07T05:06:36.239Z,7.16
2022-12-07T05:07:46.268Z,7.19
2022-12-07T05:08:56.296Z,7.2
2022-12-07T05:10:39.288Z,7.2
2022-12-07T05:11:49.316Z,7.17
2022-12-07T05:13:32.308Z,7.19
2022-12-07T05:14:42.334Z,7.22
2022-12-07T05:15:52.362Z,7.25
2022-12-07T05:17:35.357Z,7.28
2022-12-07T05:18:45.383Z,7.3
2022-12-07T05:19:55.411Z,7.31
2022-12-07T05:21:38.402Z,7.41
2022-12-07T05:22:48.429Z,7.42
2022-12-07T05:23:58.456Z,7.38
2022-12-07T05:25:41.449Z,7.34
2022-12-07T05:26:51.478Z,7.36
2022-12-07T05:28:34.470Z,7.45
2022-12-07T05:29:44.499Z,7.48
2022-12-07T05:30:54.526Z,7.49
2022-12-07T05:32:37.520Z,7.46
2022-12-07T05:33:47.548Z,7.47
2022-12-07T05:34:57.576Z,7.45
2022-12-07T05:37:09.441Z,7.38
2022-12-07T05:38:19.469Z,7.37
2022-12-07T05:39:29.497Z,7.36
2022-12-07T05:40:39.525Z,7.38
2022-12-07T05:41:49.553Z,7.41
2022-12-07T05:43:32.545Z,7.49
2022-12-07T05:44:42.573Z,7.49
2022-12-07T05:45:52.601Z,7.47
2022-12-07T05:47:35.596Z,7.41
2022-12-07T05:48:45.624Z,7.42
2022-12-07T05:49:55.652Z,7.44
2022-12-07T05:51:38.646Z,7.47
2022-12-07T05:52:48.674Z,7.48
2022-12-07T05:53:58.702Z,7.5
2022-12-07T05:55:41.694Z,7.48
2022-12-07T05:56:51.723Z,7.43
2022-12-07T05:58:34.717Z,7.34
2022-12-07T05:59:44.745Z,7.34
2022-12-07T06:00:54.773Z,7.34
2022-12-07T06:02:37.767Z,7.39
2022-12-07T06:03:47.795Z,7.43
2022-12-07T06:04:57.823Z,7.47
2022-12-07T06:06:40.816Z,7.5
2022-12-07T06:07:50.844Z,7.52
2022-12-07T06:09:33.838Z,7.55
2022-12-07T06:11:53.892Z,7.58
2022-12-07T06:15:11.688Z,7.51
2022-12-07T06:16:21.717Z,7.5
2022-12-07T06:18:04.709Z,7.49
2022-12-07T06:19:14.737Z,7.5
2022-12-07T06:21:30.697Z,7.55
2022-12-07T06:22:40.725Z,7.58
2022-12-07T06:23:50.753Z,7.64
2022-12-07T06:25:33.748Z,7.64
2022-12-07T06:26:43.775Z,7.62
2022-12-07T06:27:53.802Z,7.6
2022-12-07T06:29:36.795Z,7.59
2022-12-07T06:30:46.822Z,7.62
2022-12-07T06:31:56.849Z,7.65
2022-12-07T06:33:39.840Z,7.55
2022-12-07T06:34:49.869Z,7.52
2022-12-07T06:36:32.862Z,7.54
2022-12-07T06:37:42.889Z,7.55
2022-12-07T06:38:52.917Z,7.55
2022-12-07T06:40:35.910Z,7.54
2022-12-07T06:41:45.937Z,7.53
2022-12-07T06:42:55.965Z,7.54
2022-12-07T06:44:05.991Z,7.53
2022-12-07T06:45:16.018Z,7.53
2022-12-07T06:46:26.046Z,7.51
2022-12-07T06:47:36.072Z,7.48
2022-12-07T06:48:46.098Z,7.45
2022-12-07T06:49:56.126Z,7.44
2022-12-07T06:51:39.118Z,7.46
2022-12-07T06:52:49.147Z,7.44
2022-12-07T06:54:32.140Z,7.46
2022-12-07T06:55:42.167Z,7.46
2022-12-07T06:57:21.062Z,7.5
2022-12-07T07:00:01.793Z,7.53
2022-12-07T07:01:40.688Z,7.51
2022-12-07T07:02:50.717Z,7.5
2022-12-07T07:06:12.609Z,7.48
2022-12-07T07:07:22.637Z,7.46
2022-12-07T07:08:32.663Z,7.46
2022-12-07T07:09:42.690Z,7.45
2022-12-07T07:10:52.716Z,7.43
2022-12-07T07:13:04.577Z,7.43
2022-12-07T07:14:43.474Z,7.45
2022-12-07T07:16:51.241Z,7.46
2022-12-07T07:19:03.101Z,7.47
2022-12-07T07:20:13.128Z,7.47
2022-12-07T07:25:09.817Z,7.56
2022-12-07T07:29:04.671Z,7.58
2022-12-07T07:31:24.725Z,7.58
2022-12-07T07:33:44.780Z,7.58
2022-12-07T07:36:41.896Z,7.56
2022-12-07T07:51:52.641Z,7.67
2022-12-07T08:50:56.754Z,8.26
2022-12-07T08:52:06.782Z,8.27
2022-12-07T08:53:49.774Z,8.3
2022-12-07T08:55:32.768Z,8.31
2022-12-07T08:56:42.796Z,8.32
2022-12-07T08:57:52.824Z,8.33
2022-12-07T09:00:45.845Z,8.32
2022-12-07T09:01:55.873Z,8.28
2022-12-07T09:03:38.867Z,8.24
2022-12-07T09:06:23.698Z,8.42
2022-12-07T09:09:12.623Z,8.51
2022-12-07T09:12:26.322Z,8.51
2022-12-07T09:14:46.377Z,8.52
2022-12-07T09:17:06.432Z,8.56
2022-12-07T09:19:26.487Z,8.58
2022-12-07T09:41:12.837Z,9.05
2022-12-07T09:42:22.864Z,9.03
2022-12-07T09:43:32.892Z,9.02
2022-12-07T09:44:42.920Z,9.02
2022-12-07T09:45:52.946Z,9.02
2022-12-07T09:47:35.940Z,9.07
2022-12-07T09:48:45.969Z,9.14
2022-12-07T09:49:55.997Z,9.25
2022-12-07T09:51:06.025Z,9.47
2022-12-07T09:52:16.051Z,9.57
2022-12-07T09:53:26.079Z,9.62
2022-12-07T09:54:36.107Z,9.66
2022-12-07T09:55:46.136Z,9.66
2022-12-07T09:56:56.164Z,9.68
2022-12-07T09:58:39.156Z,9.78
2022-12-07T09:59:49.184Z,9.81
2022-12-07T10:00:59.212Z,9.78
2022-12-07T10:02:42.205Z,9.72
2022-12-07T10:03:52.233Z,9.59
2022-12-07T10:05:31.131Z,9.31
2022-12-07T10:06:41.159Z,9.16
2022-12-07T10:07:51.187Z,9.07
2022-12-07T10:09:34.181Z,9.14
2022-12-07T10:10:44.210Z,9.22
2022-12-07T10:11:54.238Z,9.31
2022-12-07T10:13:37.231Z,9.46
2022-12-07T10:14:47.258Z,9.51
2022-12-07T10:15:57.286Z,9.56
2022-12-07T10:17:40.278Z,9.57
2022-12-07T10:18:50.307Z,9.52
2022-12-07T10:20:33.301Z,9.52
2022-12-07T10:21:43.329Z,9.53
2022-12-07T10:22:53.357Z,9.52
2022-12-07T10:24:36.351Z,9.46
2022-12-07T10:25:46.380Z,9.41
2022-12-07T10:26:56.408Z,9.35
2022-12-07T10:28:39.400Z,9.27
2022-12-07T10:29:49.428Z,9.27
2022-12-07T10:31:32.422Z,9.14
2022-12-07T10:32:42.450Z,9.1
2022-12-07T10:33:52.479Z,9.1
2022-12-07T10:35:35.473Z,9.09
2022-12-07T10:36:45.501Z,9.14
2022-12-07T10:37:55.529Z,9.2
2022-12-07T10:39:38.523Z,9.34
2022-12-07T10:40:48.552Z,9.41
2022-12-07T10:41:58.580Z,9.46
2022-12-07T10:45:24.566Z,9.55
2022-12-07T10:47:07.560Z,9.54
2022-12-07T10:48:17.588Z,9.62
2022-12-07T10:49:27.617Z,9.71
2022-12-07T10:50:37.645Z,9.92
2022-12-07T10:51:47.671Z,10.01
2022-12-07T10:52:57.699Z,10.05
2022-12-07T10:54:40.693Z,10.07
2022-12-07T10:55:50.722Z,10.03
2022-12-07T10:57:00.749Z,9.99
2022-12-07T10:58:10.777Z,10.07
2022-12-07T10:59:49.674Z,10.17
2022-12-07T11:00:59.702Z,10.22
2022-12-07T11:02:09.728Z,10.25
2022-12-07T11:03:19.757Z,10.32
2022-12-07T11:05:35.717Z,10.45
2022-12-07T11:06:45.745Z,10.48
2022-12-07T11:08:28.738Z,10.48
2022-12-07T11:09:38.766Z,10.48
2022-12-07T11:10:48.794Z,10.45
2022-12-07T11:11:58.820Z,10.42
2022-12-07T11:13:41.814Z,10.35
2022-12-07T11:16:26.645Z,10.34
2022-12-07T11:17:36.673Z,10.33
2022-12-07T11:18:46.701Z,10.3
2022-12-07T11:20:29.695Z,10.26
2022-12-07T11:21:39.723Z,10.22
2022-12-07T11:22:49.751Z,10.18
2022-12-07T11:24:32.746Z,9.97
2022-12-07T11:25:42.774Z,9.91
2022-12-07T11:26:52.802Z,9.82
2022-12-07T11:28:35.796Z,9.77
2022-12-07T11:29:45.824Z,9.77
2022-12-07T11:30:55.853Z,9.75
2022-12-07T11:32:38.847Z,9.74
2022-12-07T11:33:48.875Z,9.78
2022-12-07T11:34:58.903Z,9.85
2022-12-07T11:36:41.897Z,10.02
2022-12-07T11:37:51.925Z,10.09
2022-12-07T11:39:34.918Z,10.16
2022-12-07T11:40:44.945Z,10.17
2022-12-07T11:41:54.972Z,10.18
2022-12-07T11:43:37.964Z,10.25
2022-12-07T11:44:47.993Z,10.33
2022-12-07T11:45:58.021Z,10.41
2022-12-07T11:47:41.015Z,10.44
2022-12-07T11:48:51.043Z,10.44
2022-12-07T11:50:34.037Z,10.4
2022-12-07T11:51:44.064Z,10.37
2022-12-07T11:52:54.092Z,10.37
2022-12-07T11:54:37.084Z,10.33
2022-12-07T11:55:47.112Z,10.29
2022-12-07T11:56:57.139Z,10.22
2022-12-07T11:58:40.132Z,10.02
2022-12-07T11:59:50.159Z,9.91
2022-12-07T12:01:33.153Z,9.82
2022-12-07T12:02:43.180Z,9.71
2022-12-07T12:03:53.207Z,9.6
2022-12-07T12:06:46.230Z,9.6
2022-12-07T12:07:56.258Z,9.66
2022-12-07T12:10:08.120Z,9.68
2022-12-07T12:11:18.148Z,9.62
2022-12-07T12:12:28.177Z,9.62
2022-12-07T12:14:11.172Z,9.67
2022-12-07T12:15:54.165Z,9.53
2022-12-07T12:18:06.027Z,9.34
2022-12-07T12:20:26.084Z,9.3
2022-12-07T12:23:52.072Z,9.27
2022-12-07T12:26:12.127Z,9.18
2022-12-07T12:28:32.183Z,9.13
2022-12-07T12:45:59.097Z,9.16
2022-12-07T12:48:39.832Z,9.2
2022-12-07T12:50:18.730Z,9.34
2022-12-07T12:51:28.757Z,9.38
2022-12-07T12:54:50.646Z,9.54
2022-12-07T12:57:35.476Z,9.5
2022-12-07T12:59:18.469Z,9.35
2022-12-07T13:00:28.497Z,9.33
2022-12-07T13:01:38.525Z,9.34
2022-12-07T13:02:48.553Z,9.37
2022-12-07T13:03:58.580Z,9.38
2022-12-07T13:05:41.574Z,9.45
2022-12-07T13:08:34.597Z,9.51
2022-12-07T13:10:54.652Z,9.5
2022-12-07T13:14:16.545Z,9.35
2022-12-07T13:16:36.601Z,9.35
2022-12-07T13:20:02.588Z,9.42
2022-12-07T13:22:22.643Z,9.46
2022-12-07T13:24:42.698Z,9.54
2022-12-07T13:27:27.527Z,9.47
2022-12-07T13:32:28.313Z,9.18
2022-12-07T13:33:38.342Z,9.14
2022-12-07T13:36:47.946Z,9.13
2022-12-07T13:38:55.712Z,9.16
2022-12-07T13:41:15.769Z,9.17
2022-12-07T13:43:35.825Z,9.18
2022-12-07T13:57:19.973Z,9.18
2022-12-07T13:58:30.002Z,9.16
2022-12-07T13:59:40.029Z,9.13
2022-12-07T14:00:50.057Z,9.1
2022-12-07T14:02:33.051Z,9.09
2022-12-07T14:03:43.080Z,9.1
2022-12-07T14:04:53.108Z,9.14
2022-12-07T14:07:37.938Z,9.16
2022-12-07T14:08:47.966Z,9.12
2022-12-07T14:10:30.957Z,9.07
2022-12-07T14:11:40.985Z,9.04
2022-12-07T14:14:34.007Z,9.01
2022-12-07T14:15:44.035Z,9.03
2022-12-07T14:16:54.063Z,9.04
2022-12-07T14:18:37.058Z,9.01
2022-12-07T14:19:47.086Z,8.97
2022-12-07T14:20:57.114Z,8.91
2022-12-07T14:22:40.106Z,8.89
2022-12-07T14:23:50.134Z,8.93
2022-12-07T14:26:43.154Z,9
2022-12-07T14:27:53.181Z,9.02
2022-12-07T14:29:36.173Z,9.07
2022-12-07T14:30:46.201Z,9.07
2022-12-07T14:31:56.227Z,9.1
2022-12-07T14:35:14.022Z,9.14
2022-12-07T14:37:34.077Z,9.13
2022-12-07T14:41:00.063Z,9.05
2022-12-07T14:43:20.118Z,9.06
2022-12-07T14:50:28.674Z,9.27
2022-12-07T14:51:38.702Z,9.26
2022-12-07T14:53:54.662Z,9.29
2022-12-07T14:55:04.690Z,9.28
2022-12-07T14:56:14.718Z,9.26
2022-12-07T14:57:24.745Z,9.25
2022-12-07T14:59:40.703Z,9.16
2022-12-07T15:01:19.601Z,9.1
2022-12-07T15:04:12.624Z,8.88
2022-12-07T15:05:22.652Z,8.85
2022-12-07T15:07:38.612Z,8.83
2022-12-07T15:08:48.640Z,8.84
2022-12-07T15:10:31.634Z,8.82
2022-12-07T15:11:41.662Z,8.8
2022-12-07T15:12:51.689Z,8.78
2022-12-07T15:14:34.683Z,8.72
2022-12-07T15:15:44.709Z,8.72
2022-12-07T15:18:29.539Z,8.77
2022-12-07T15:19:39.568Z,8.78
2022-12-07T15:20:49.596Z,8.78
2022-12-07T15:22:32.589Z,8.82
2022-12-07T15:23:42.616Z,8.85
2022-12-07T15:24:52.644Z,8.89
2022-12-07T15:27:45.667Z,8.89
2022-12-07T15:28:55.695Z,8.91
2022-12-07T15:30:38.689Z,8.88
2022-12-07T15:31:48.717Z,8.87
2022-12-07T15:32:58.745Z,8.85
2022-12-07T15:34:41.740Z,8.85
2022-12-07T15:35:51.768Z,8.85
2022-12-07T15:37:34.762Z,8.83
2022-12-07T15:38:44.790Z,8.83
2022-12-07T15:39:54.818Z,8.83
2022-12-07T15:41:37.813Z,8.83
2022-12-07T15:42:47.841Z,8.85
2022-12-07T15:43:57.869Z,8.89
2022-12-07T15:45:40.863Z,8.93
2022-12-07T15:46:50.891Z,8.93
2022-12-07T15:48:33.885Z,8.95
2022-12-07T15:49:43.913Z,8.96
2022-12-07T15:50:53.940Z,8.97
2022-12-07T15:52:36.934Z,8.97
2022-12-07T15:53:46.962Z,8.97
2022-12-07T15:54:56.990Z,8.97
2022-12-07T15:56:39.985Z,9
2022-12-07T15:57:50.013Z,9.02
2022-12-07T15:59:33.007Z,9.03
2022-12-07T16:00:43.034Z,9
2022-12-07T16:01:53.061Z,8.97
2022-12-07T16:03:36.052Z,8.93
2022-12-07T16:04:46.080Z,8.93
2022-12-07T16:05:56.108Z,8.92
2022-12-07T16:07:06.136Z,8.87
2022-12-07T16:08:16.162Z,8.82
2022-12-07T16:09:26.190Z,8.8
2022-12-07T16:10:36.218Z,8.78
2022-12-07T16:12:15.114Z,8.77
2022-12-07T16:13:25.141Z,8.74
2022-12-07T16:15:08.135Z,8.71
2022-12-07T16:16:18.163Z,8.7
2022-12-07T16:18:34.123Z,8.71
2022-12-07T16:19:44.151Z,8.71
2022-12-07T16:20:54.178Z,8.68
2022-12-07T16:22:37.172Z,8.62
2022-12-07T16:23:47.200Z,8.57
2022-12-07T16:24:57.228Z,8.53
2022-12-07T16:26:40.222Z,8.43
2022-12-07T16:29:25.051Z,8.27
2022-12-07T16:30:35.077Z,8.24
2022-12-07T16:31:45.104Z,8.2
2022-12-07T16:33:28.097Z,8.12
2022-12-07T16:34:38.125Z,8.08
2022-12-07T16:35:48.153Z,8.06
2022-12-07T16:36:58.182Z,8.05
2022-12-07T16:39:51.204Z,8.14
2022-12-07T16:41:34.198Z,8.22
2022-12-07T16:42:44.226Z,8.22
2022-12-07T16:43:54.255Z,8.27
2022-12-07T16:45:37.249Z,8.34
2022-12-07T16:46:47.277Z,8.38
2022-12-07T16:48:30.271Z,8.43
2022-12-07T16:50:13.264Z,8.51
2022-12-07T16:51:23.291Z,8.53
2022-12-07T16:53:06.286Z,8.58
2022-12-07T16:54:49.278Z,8.6
2022-12-07T16:56:32.272Z,8.64
2022-12-07T16:57:42.299Z,8.66
2022-12-07T16:58:52.326Z,8.68
2022-12-07T17:00:35.319Z,8.72
2022-12-07T17:01:45.347Z,8.71
2022-12-07T17:02:55.375Z,8.71
2022-12-07T17:04:38.367Z,8.72
2022-12-07T17:05:48.395Z,8.7
2022-12-07T17:06:58.423Z,8.68
2022-12-07T17:08:41.416Z,8.64
2022-12-07T17:09:51.444Z,8.6
2022-12-07T17:11:34.437Z,8.6
2022-12-07T17:12:44.463Z,8.6
2022-12-07T17:13:54.490Z,8.57
2022-12-07T17:15:37.483Z,8.53
2022-12-07T17:16:47.511Z,8.51
2022-12-07T17:17:57.539Z,8.5
2022-12-07T17:19:40.533Z,8.49
2022-12-07T17:20:50.561Z,8.46
2022-12-07T17:22:33.555Z,8.38
2022-12-07T17:23:43.583Z,8.35
2022-12-07T17:24:53.612Z,8.3
2022-12-07T17:26:36.606Z,8.26
2022-12-07T17:28:48.468Z,8.21
2022-12-07T17:30:31.460Z,8.16
2022-12-07T17:31:41.488Z,8.14
2022-12-07T17:32:51.517Z,8.14
2022-12-07T17:34:01.545Z,8.16
2022-12-07T17:35:11.573Z,8.17
2022-12-07T17:36:21.601Z,8.16
2022-12-07T17:37:31.627Z,8.16
2022-12-07T17:38:41.655Z,8.14
2022-12-07T17:39:51.683Z,8.13
2022-12-07T17:41:34.678Z,8.09
2022-12-07T17:43:54.734Z,8.06
2022-12-07T17:45:37.728Z,8.07
2022-12-07T17:46:47.754Z,8.09
2022-12-07T17:47:57.780Z,8.09
2022-12-07T17:49:40.775Z,8.08
2022-12-07T17:50:50.803Z,8.06
2022-12-07T17:52:33.794Z,7.99
2022-12-07T17:53:43.820Z,7.97
2022-12-07T17:54:53.847Z,7.96
2022-12-07T17:56:36.841Z,7.93
2022-12-07T17:57:46.870Z,7.92
2022-12-07T17:58:56.896Z,7.89
2022-12-07T18:00:39.890Z,7.86
2022-12-07T18:01:49.918Z,7.88
2022-12-07T18:03:32.912Z,7.87
2022-12-07T18:04:42.938Z,7.88
2022-12-07T18:05:52.966Z,7.9
2022-12-07T18:07:35.960Z,7.92
2022-12-07T18:08:45.987Z,7.91
2022-12-07T18:09:56.014Z,7.92
2022-12-07T18:11:39.007Z,7.96
2022-12-07T18:12:49.035Z,7.98
2022-12-07T18:13:59.063Z,8.04
2022-12-07T18:15:42.056Z,8.16
2022-12-07T18:16:52.084Z,8.22
2022-12-07T18:18:35.077Z,8.32
2022-12-07T18:19:45.103Z,8.35
2022-12-07T18:21:28.096Z,8.39
2022-12-07T18:22:38.123Z,8.41
2022-12-07T18:23:48.151Z,8.42
2022-12-07T18:24:58.179Z,8.43
2022-12-07T18:26:41.172Z,8.39
2022-12-07T18:27:51.198Z,8.35
2022-12-07T18:29:34.191Z,8.26
2022-12-07T18:30:44.218Z,8.21
2022-12-07T18:31:54.246Z,8.18
2022-12-07T18:33:37.239Z,8.18
2022-12-07T18:34:47.266Z,8.18
2022-12-07T18:35:57.294Z,8.18
2022-12-07T18:37:40.287Z,8.24
2022-12-07T18:40:33.307Z,8.35
2022-12-07T18:41:43.335Z,8.38
2022-12-07T18:42:53.363Z,8.39
2022-12-07T18:45:09.323Z,8.45
2022-12-07T18:46:19.351Z,8.46
2022-12-07T18:47:29.380Z,8.46
2022-12-07T18:49:12.373Z,8.47
2022-12-07T18:50:55.366Z,8.47
2022-12-07T18:52:38.360Z,8.53
2022-12-07T18:53:48.388Z,8.54
2022-12-07T18:55:31.381Z,8.55
2022-12-07T18:56:41.408Z,8.53
2022-12-07T18:57:51.435Z,8.5
2022-12-07T19:00:32.166Z,8.47
2022-12-07T19:01:42.192Z,8.46
2022-12-07T19:03:21.089Z,8.47
2022-12-07T19:05:32.954Z,8.53
2022-12-07T19:07:48.914Z,8.47
2022-12-07T19:10:37.840Z,8.32
2022-12-07T19:11:47.867Z,8.28
2022-12-07T19:12:57.894Z,8.22
2022-12-07T19:14:07.922Z,8.21
2022-12-07T19:15:17.949Z,8.18
2022-12-07T19:16:27.977Z,8.18
2022-12-07T19:17:38.005Z,8.2
2022-12-07T19:18:48.033Z,8.22
2022-12-07T19:19:58.061Z,8.2
2022-12-07T19:21:41.055Z,8.17
2022-12-07T19:22:51.082Z,8.18
2022-12-07T19:24:34.074Z,8.18
2022-12-07T19:25:44.102Z,8.21
2022-12-07T19:26:54.130Z,8.22
2022-12-07T19:28:37.123Z,8.26
2022-12-07T19:29:47.149Z,8.28
2022-12-07T19:30:57.177Z,8.27
2022-12-07T19:32:40.168Z,8.29
2022-12-07T19:33:50.195Z,8.31
2022-12-07T19:35:33.186Z,8.31
2022-12-07T19:36:43.212Z,8.3
2022-12-07T19:37:53.240Z,8.3
2022-12-07T19:39:32.136Z,8.31
2022-12-07T19:40:42.165Z,8.34
2022-12-07T19:41:52.192Z,8.37
2022-12-07T19:43:35.184Z,8.43
2022-12-07T19:44:45.212Z,8.47
2022-12-07T19:45:55.240Z,8.52
2022-12-07T19:47:38.232Z,8.55
2022-12-07T19:48:48.259Z,8.55
2022-12-07T19:49:58.286Z,8.49
2022-12-07T19:51:41.278Z,8.39
2022-12-07T19:52:51.305Z,8.37
2022-12-07T19:54:34.299Z,8.35
2022-12-07T19:55:44.326Z,8.35
2022-12-07T19:56:54.352Z,8.34
2022-12-07T19:58:37.343Z,8.31
2022-12-07T19:59:47.370Z,8.29
2022-12-07T20:00:57.396Z,8.27
2022-12-07T20:02:40.390Z,8.22
2022-12-07T20:03:50.417Z,8.24
2022-12-07T20:05:33.410Z,8.26
2022-12-07T20:06:43.437Z,8.28
2022-12-07T20:07:53.463Z,8.31
2022-12-07T20:09:36.456Z,8.32
2022-12-07T20:10:46.484Z,8.3
2022-12-07T20:11:56.510Z,8.3
2022-12-07T20:14:49.530Z,8.22
2022-12-07T20:15:59.558Z,8.21
2022-12-07T20:17:42.551Z,8.2
2022-12-07T20:18:52.580Z,8.18
2022-12-07T20:20:35.573Z,8.22
2022-12-07T20:21:45.599Z,8.25
2022-12-07T20:23:28.592Z,8.33
2022-12-07T20:24:38.618Z,8.34
2022-12-07T20:25:48.646Z,8.35
2022-12-07T20:26:58.673Z,8.34
2022-12-07T20:28:41.664Z,8.33
2022-12-07T20:29:51.692Z,8.32
2022-12-07T20:31:34.684Z,8.26
2022-12-07T20:33:13.581Z,8.25
2022-12-07T20:34:23.607Z,8.24
2022-12-07T20:36:06.602Z,8.28
2022-12-07T20:37:16.628Z,8.26
2022-12-07T20:38:26.654Z,8.24
2022-12-07T20:40:09.646Z,8.17
2022-12-07T20:41:48.542Z,8.14
2022-12-07T20:42:58.570Z,8.12
2022-12-07T20:45:10.432Z,8.14
2022-12-07T20:46:49.330Z,8.18
2022-12-07T20:49:01.192Z,8.28
2022-12-07T20:52:47.857Z,8.39
2022-12-07T20:56:01.553Z,8.43
2022-12-07T20:58:17.514Z,8.35
2022-12-07T20:59:27.543Z,8.31
2022-12-07T21:01:43.499Z,8.25
2022-12-07T21:03:26.492Z,8.21
2022-12-07T21:04:36.519Z,8.2
2022-12-07T21:05:46.547Z,8.18
2022-12-07T21:07:58.409Z,8.12
2022-12-07T21:09:37.306Z,8.09
2022-12-07T21:10:47.334Z,8.07
2022-12-07T21:12:30.328Z,8.01
2022-12-07T21:13:40.355Z,7.97
2022-12-07T21:16:29.283Z,7.82
2022-12-07T21:17:39.310Z,7.79
2022-12-07T21:18:49.336Z,7.75
2022-12-07T21:21:01.199Z,7.73
2022-12-07T21:23:50.124Z,7.74
2022-12-07T21:25:33.118Z,7.76
2022-12-07T21:26:43.145Z,7.75
2022-12-07T21:28:26.137Z,7.75
2022-12-07T21:30:33.904Z,7.75
2022-12-07T21:32:53.960Z,7.74
2022-12-07T21:35:14.017Z,7.72
2022-12-07T21:38:40.004Z,7.7
2022-12-07T21:48:37.482Z,7.9
2022-12-07T21:50:20.476Z,7.86
2022-12-07T21:51:30.505Z,7.85
2022-12-07T21:52:40.533Z,7.85
2022-12-07T21:54:19.431Z,7.83
2022-12-07T21:56:02.423Z,7.85
2022-12-07T21:57:12.450Z,7.83
2022-12-07T21:58:22.477Z,7.84
2022-12-07T22:00:38.437Z,7.94
2022-12-07T22:01:48.464Z,7.95
2022-12-07T22:03:31.458Z,7.94
2022-12-07T22:04:41.484Z,7.91
2022-12-07T22:05:51.512Z,7.9
2022-12-07T22:07:34.504Z,7.87
2022-12-07T22:08:44.532Z,7.88
2022-12-07T22:11:29.359Z,7.91
2022-12-07T22:12:39.387Z,7.9
2022-12-07T22:13:49.414Z,7.91
2022-12-07T22:15:32.407Z,7.94
2022-12-07T22:16:42.435Z,7.95
2022-12-07T22:17:52.463Z,7.96
2022-12-07T22:19:35.456Z,7.97
2022-12-07T22:20:45.484Z,7.96
2022-12-07T22:21:55.512Z,7.95